sensor_id;sensor_type;location;lat;lon;timestamp;P1;durP1;ratioP1;P2;durP2;ratioP2
32946;SDS011;54465;51.230;22.504;2023-10-13T00:02:27;12.55;;;7.93;;
32946;SDS011;54465;51.230;22.504;2023-10-13T00:07:28;10.43;;;6.82;;
32946;SDS011;54465;51.230;22.504;2023-10-13T00:12:28;10.27;;;7.43;;
32946;SDS011;54465;51.230;22.504;2023-10-13T00:17:31;13.00;;;8.05;;
32946;SDS011;54465;51.230;22.504;2023-10-13T00:22:32;10.57;;;7.88;;
32946;SDS011;54465;51.230;22.504;2023-10-13T00:27:34;11.63;;;8.75;;
32946;SDS011;54465;51.230;22.504;2023-10-13T00:32:36;10.93;;;7.82;;
32946;SDS011;54465;51.230;22.504;2023-10-13T00:37:39;15.02;;;8.63;;
32946;SDS011;54465;51.230;22.504;2023-10-13T00:42:44;12.98;;;8.13;;
32946;SDS011;54465;51.230;22.504;2023-10-13T00:47:51;11.70;;;7.97;;
32946;SDS011;54465;51.230;22.504;2023-10-13T00:52:57;9.45;;;6.63;;
32946;SDS011;54465;51.230;22.504;2023-10-13T00:57:58;9.55;;;6.07;;
32946;SDS011;54465;51.230;22.504;2023-10-13T01:03:03;8.73;;;5.82;;
32946;SDS011;54465;51.230;22.504;2023-10-13T01:08:07;6.45;;;4.97;;
32946;SDS011;54465;51.230;22.504;2023-10-13T01:13:12;5.95;;;4.78;;
32946;SDS011;54465;51.230;22.504;2023-10-13T01:18:13;5.95;;;4.40;;
32946;SDS011;54465;51.230;22.504;2023-10-13T01:23:17;7.70;;;4.45;;
32946;SDS011;54465;51.230;22.504;2023-10-13T01:33:24;6.32;;;4.32;;
32946;SDS011;54465;51.230;22.504;2023-10-13T01:38:28;8.07;;;4.40;;
32946;SDS011;54465;51.230;22.504;2023-10-13T01:43:33;7.82;;;4.05;;
32946;SDS011;54465;51.230;22.504;2023-10-13T01:48:35;8.75;;;4.80;;
32946;SDS011;54465;51.230;22.504;2023-10-13T01:53:40;6.72;;;4.40;;
32946;SDS011;54465;51.230;22.504;2023-10-13T01:58:44;5.13;;;4.00;;
32946;SDS011;54465;51.230;22.504;2023-10-13T02:03:48;5.53;;;3.40;;
32946;SDS011;54465;51.230;22.504;2023-10-13T02:08:49;5.43;;;3.47;;
32946;SDS011;54465;51.230;22.504;2023-10-13T02:13:57;4.28;;;2.67;;
32946;SDS011;54465;51.230;22.504;2023-10-13T02:18:57;6.03;;;2.90;;
32946;SDS011;54465;51.230;22.504;2023-10-13T02:24:05;8.47;;;3.00;;
32946;SDS011;54465;51.230;22.504;2023-10-13T02:29:18;5.10;;;2.83;;
32946;SDS011;54465;51.230;22.504;2023-10-13T02:34:19;6.38;;;3.20;;
32946;SDS011;54465;51.230;22.504;2023-10-13T02:39:19;6.22;;;3.17;;
32946;SDS011;54465;51.230;22.504;2023-10-13T02:44:28;6.95;;;2.70;;
32946;SDS011;54465;51.230;22.504;2023-10-13T02:49:31;5.75;;;3.13;;
32946;SDS011;54465;51.230;22.504;2023-10-13T02:54:35;6.00;;;2.90;;
32946;SDS011;54465;51.230;22.504;2023-10-13T02:59:42;6.20;;;2.92;;
32946;SDS011;54465;51.230;22.504;2023-10-13T03:05:12;6.63;;;2.83;;
32946;SDS011;54465;51.230;22.504;2023-10-13T03:10:13;4.80;;;2.40;;
32946;SDS011;54465;51.230;22.504;2023-10-13T03:15:16;6.88;;;3.00;;
32946;SDS011;54465;51.230;22.504;2023-10-13T03:20:21;3.92;;;1.83;;
32946;SDS011;54465;51.230;22.504;2023-10-13T03:25:25;5.63;;;2.42;;
32946;SDS011;54465;51.230;22.504;2023-10-13T03:30:29;6.40;;;2.42;;
32946;SDS011;54465;51.230;22.504;2023-10-13T03:35:35;5.95;;;2.10;;
32946;SDS011;54465;51.230;22.504;2023-10-13T03:40:41;3.70;;;2.00;;
32946;SDS011;54465;51.230;22.504;2023-10-13T03:45:43;5.00;;;2.08;;
32946;SDS011;54465;51.230;22.504;2023-10-13T03:50:47;6.60;;;2.05;;
32946;SDS011;54465;51.230;22.504;2023-10-13T03:56:02;7.10;;;2.70;;
32946;SDS011;54465;51.230;22.504;2023-10-13T04:01:26;5.43;;;2.78;;
32946;SDS011;54465;51.230;22.504;2023-10-13T04:06:35;4.40;;;1.88;;
32946;SDS011;54465;51.230;22.504;2023-10-13T04:11:47;4.25;;;1.90;;
32946;SDS011;54465;51.230;22.504;2023-10-13T04:17:02;6.40;;;1.95;;
32946;SDS011;54465;51.230;22.504;2023-10-13T04:22:12;6.38;;;2.28;;
32946;SDS011;54465;51.230;22.504;2023-10-13T04:27:20;5.65;;;2.75;;
32946;SDS011;54465;51.230;22.504;2023-10-13T04:32:40;7.18;;;2.10;;
32946;SDS011;54465;51.230;22.504;2023-10-13T04:37:46;6.87;;;2.80;;
32946;SDS011;54465;51.230;22.504;2023-10-13T04:43:01;5.82;;;2.25;;
32946;SDS011;54465;51.230;22.504;2023-10-13T04:48:17;5.15;;;2.55;;
32946;SDS011;54465;51.230;22.504;2023-10-13T04:53:27;7.47;;;2.97;;
32946;SDS011;54465;51.230;22.504;2023-10-13T04:58:33;4.82;;;2.10;;
32946;SDS011;54465;51.230;22.504;2023-10-13T05:03:33;8.80;;;2.70;;
32946;SDS011;54465;51.230;22.504;2023-10-13T05:08:52;5.82;;;2.60;;
32946;SDS011;54465;51.230;22.504;2023-10-13T05:14:11;6.10;;;3.35;;
32946;SDS011;54465;51.230;22.504;2023-10-13T05:19:30;8.38;;;3.00;;
32946;SDS011;54465;51.230;22.504;2023-10-13T05:24:49;7.38;;;3.90;;
32946;SDS011;54465;51.230;22.504;2023-10-13T05:30:08;10.00;;;4.38;;
32946;SDS011;54465;51.230;22.504;2023-10-13T05:35:27;8.13;;;4.70;;
32946;SDS011;54465;51.230;22.504;2023-10-13T05:41:01;8.88;;;3.95;;
32946;SDS011;54465;51.230;22.504;2023-10-13T05:46:22;9.00;;;3.42;;
32946;SDS011;54465;51.230;22.504;2023-10-13T05:51:25;8.90;;;3.08;;
32946;SDS011;54465;51.230;22.504;2023-10-13T06:02:06;5.95;;;3.30;;
32946;SDS011;54465;51.230;22.504;2023-10-13T06:07:25;9.52;;;4.00;;
32946;SDS011;54465;51.230;22.504;2023-10-13T06:12:49;3.83;;;3.10;;
32946;SDS011;54465;51.230;22.504;2023-10-13T06:18:08;5.35;;;3.70;;
32946;SDS011;54465;51.230;22.504;2023-10-13T06:23:27;5.95;;;3.38;;
32946;SDS011;54465;51.230;22.504;2023-10-13T06:28:46;7.40;;;4.20;;
32946;SDS011;54465;51.230;22.504;2023-10-13T06:33:46;8.93;;;4.15;;
32946;SDS011;54465;51.230;22.504;2023-10-13T06:38:47;7.53;;;3.42;;
32946;SDS011;54465;51.230;22.504;2023-10-13T06:43:55;8.18;;;3.90;;
32946;SDS011;54465;51.230;22.504;2023-10-13T06:49:01;8.05;;;4.53;;
32946;SDS011;54465;51.230;22.504;2023-10-13T06:54:03;8.85;;;3.70;;
32946;SDS011;54465;51.230;22.504;2023-10-13T06:59:04;8.48;;;3.38;;
32946;SDS011;54465;51.230;22.504;2023-10-13T07:04:09;10.45;;;5.20;;
32946;SDS011;54465;51.230;22.504;2023-10-13T07:09:16;10.32;;;5.15;;
32946;SDS011;54465;51.230;22.504;2023-10-13T07:14:35;15.63;;;6.53;;
32946;SDS011;54465;51.230;22.504;2023-10-13T07:19:37;14.63;;;6.68;;
32946;SDS011;54465;51.230;22.504;2023-10-13T07:24:53;12.35;;;6.80;;
32946;SDS011;54465;51.230;22.504;2023-10-13T07:29:54;13.65;;;6.80;;
32946;SDS011;54465;51.230;22.504;2023-10-13T07:35:27;18.90;;;8.63;;
32946;SDS011;54465;51.230;22.504;2023-10-13T07:40:31;17.45;;;7.78;;
32946;SDS011;54465;51.230;22.504;2023-10-13T07:45:31;18.08;;;9.07;;
32946;SDS011;54465;51.230;22.504;2023-10-13T07:50:38;19.85;;;8.75;;
32946;SDS011;54465;51.230;22.504;2023-10-13T07:55:39;18.83;;;8.20;;
32946;SDS011;54465;51.230;22.504;2023-10-13T08:00:40;23.30;;;9.80;;
32946;SDS011;54465;51.230;22.504;2023-10-13T08:05:43;18.02;;;9.52;;
32946;SDS011;54465;51.230;22.504;2023-10-13T08:11:04;19.40;;;10.05;;
32946;SDS011;54465;51.230;22.504;2023-10-13T08:16:23;20.38;;;10.57;;
32946;SDS011;54465;51.230;22.504;2023-10-13T08:21:29;18.80;;;9.63;;
32946;SDS011;54465;51.230;22.504;2023-10-13T08:26:32;20.85;;;11.05;;
32946;SDS011;54465;51.230;22.504;2023-10-13T08:31:52;23.75;;;11.60;;
32946;SDS011;54465;51.230;22.504;2023-10-13T08:37:18;19.48;;;10.30;;
32946;SDS011;54465;51.230;22.504;2023-10-13T08:42:21;21.25;;;10.68;;
32946;SDS011;54465;51.230;22.504;2023-10-13T08:47:23;18.38;;;9.85;;
32946;SDS011;54465;51.230;22.504;2023-10-13T08:52:29;16.52;;;9.85;;
32946;SDS011;54465;51.230;22.504;2023-10-13T08:57:49;15.85;;;9.13;;
32946;SDS011;54465;51.230;22.504;2023-10-13T09:02:53;13.02;;;8.80;;
32946;SDS011;54465;51.230;22.504;2023-10-13T09:08:29;12.50;;;8.32;;
32946;SDS011;54465;51.230;22.504;2023-10-13T09:13:36;14.27;;;9.15;;
32946;SDS011;54465;51.230;22.504;2023-10-13T09:18:45;17.13;;;8.45;;
32946;SDS011;54465;51.230;22.504;2023-10-13T09:23:46;14.68;;;8.23;;
32946;SDS011;54465;51.230;22.504;2023-10-13T09:28:48;13.60;;;8.70;;
32946;SDS011;54465;51.230;22.504;2023-10-13T09:33:53;10.82;;;7.57;;
32946;SDS011;54465;51.230;22.504;2023-10-13T09:38:56;10.25;;;6.60;;
32946;SDS011;54465;51.230;22.504;2023-10-13T09:44:13;8.10;;;5.05;;
32946;SDS011;54465;51.230;22.504;2023-10-13T09:49:13;6.40;;;4.35;;
32946;SDS011;54465;51.230;22.504;2023-10-13T09:54:31;7.67;;;4.70;;
32946;SDS011;54465;51.230;22.504;2023-10-13T09:59:43;10.00;;;5.63;;
32946;SDS011;54465;51.230;22.504;2023-10-13T10:04:52;11.88;;;4.85;;
32946;SDS011;54465;51.230;22.504;2023-10-13T10:09:56;10.82;;;4.28;;
32946;SDS011;54465;51.230;22.504;2023-10-13T10:20:28;7.32;;;4.13;;
32946;SDS011;54465;51.230;22.504;2023-10-13T10:25:40;8.05;;;4.10;;
32946;SDS011;54465;51.230;22.504;2023-10-13T10:30:44;6.93;;;4.28;;
32946;SDS011;54465;51.230;22.504;2023-10-13T10:35:46;5.90;;;3.45;;
32946;SDS011;54465;51.230;22.504;2023-10-13T10:45:52;4.97;;;2.97;;
32946;SDS011;54465;51.230;22.504;2023-10-13T10:50:55;6.53;;;2.90;;
32946;SDS011;54465;51.230;22.504;2023-10-13T10:56:03;6.95;;;2.72;;
32946;SDS011;54465;51.230;22.504;2023-10-13T11:01:06;6.93;;;3.00;;
32946;SDS011;54465;51.230;22.504;2023-10-13T11:06:13;8.23;;;3.17;;
32946;SDS011;54465;51.230;22.504;2023-10-13T11:11:27;6.55;;;3.95;;
32946;SDS011;54465;51.230;22.504;2023-10-13T11:16:30;8.80;;;4.72;;
32946;SDS011;54465;51.230;22.504;2023-10-13T11:21:34;10.32;;;4.60;;
32946;SDS011;54465;51.230;22.504;2023-10-13T11:26:37;10.70;;;5.25;;
32946;SDS011;54465;51.230;22.504;2023-10-13T11:31:50;10.98;;;5.47;;
32946;SDS011;54465;51.230;22.504;2023-10-13T11:36:59;9.05;;;5.35;;
32946;SDS011;54465;51.230;22.504;2023-10-13T11:42:20;7.10;;;5.25;;
32946;SDS011;54465;51.230;22.504;2023-10-13T11:47:20;11.48;;;5.38;;
32946;SDS011;54465;51.230;22.504;2023-10-13T11:52:47;8.93;;;5.80;;
32946;SDS011;54465;51.230;22.504;2023-10-13T11:57:48;6.55;;;4.65;;
32946;SDS011;54465;51.230;22.504;2023-10-13T12:02:48;10.43;;;5.40;;
32946;SDS011;54465;51.230;22.504;2023-10-13T12:08:07;9.57;;;4.68;;
32946;SDS011;54465;51.230;22.504;2023-10-13T12:13:19;7.03;;;4.30;;
32946;SDS011;54465;51.230;22.504;2023-10-13T12:18:21;8.95;;;4.88;;
32946;SDS011;54465;51.230;22.504;2023-10-13T12:23:23;6.57;;;4.95;;
32946;SDS011;54465;51.230;22.504;2023-10-13T12:28:31;10.55;;;5.05;;
32946;SDS011;54465;51.230;22.504;2023-10-13T12:33:37;8.73;;;4.90;;
32946;SDS011;54465;51.230;22.504;2023-10-13T12:38:40;7.05;;;4.18;;
32946;SDS011;54465;51.230;22.504;2023-10-13T12:43:47;8.18;;;3.72;;
32946;SDS011;54465;51.230;22.504;2023-10-13T12:49:05;8.70;;;4.13;;
32946;SDS011;54465;51.230;22.504;2023-10-13T12:54:26;10.15;;;4.72;;
32946;SDS011;54465;51.230;22.504;2023-10-13T12:59:35;8.63;;;3.95;;
32946;SDS011;54465;51.230;22.504;2023-10-13T13:04:35;9.15;;;3.75;;
32946;SDS011;54465;51.230;22.504;2023-10-13T13:09:44;6.57;;;4.00;;
32946;SDS011;54465;51.230;22.504;2023-10-13T13:14:44;10.15;;;3.55;;
32946;SDS011;54465;51.230;22.504;2023-10-13T13:19:55;7.35;;;3.53;;
32946;SDS011;54465;51.230;22.504;2023-10-13T13:24:55;12.32;;;4.57;;
32946;SDS011;54465;51.230;22.504;2023-10-13T13:29:56;7.28;;;4.00;;
32946;SDS011;54465;51.230;22.504;2023-10-13T13:34:56;5.72;;;3.97;;
32946;SDS011;54465;51.230;22.504;2023-10-13T13:40:07;14.32;;;5.07;;
32946;SDS011;54465;51.230;22.504;2023-10-13T13:45:15;9.43;;;4.32;;
32946;SDS011;54465;51.230;22.504;2023-10-13T13:50:27;13.65;;;4.55;;
32946;SDS011;54465;51.230;22.504;2023-10-13T13:55:33;7.35;;;4.57;;
32946;SDS011;54465;51.230;22.504;2023-10-13T14:00:34;8.63;;;3.88;;
32946;SDS011;54465;51.230;22.504;2023-10-13T14:05:43;5.85;;;3.78;;
32946;SDS011;54465;51.230;22.504;2023-10-13T14:10:44;6.45;;;4.10;;
32946;SDS011;54465;51.230;22.504;2023-10-13T14:16:03;10.18;;;3.97;;
32946;SDS011;54465;51.230;22.504;2023-10-13T14:21:04;10.55;;;4.10;;
32946;SDS011;54465;51.230;22.504;2023-10-13T14:26:04;9.25;;;5.13;;
32946;SDS011;54465;51.230;22.504;2023-10-13T14:31:09;7.57;;;4.65;;
32946;SDS011;54465;51.230;22.504;2023-10-13T14:36:13;9.98;;;6.32;;
32946;SDS011;54465;51.230;22.504;2023-10-13T14:41:17;9.80;;;4.55;;
32946;SDS011;54465;51.230;22.504;2023-10-13T14:46:19;11.57;;;4.85;;
32946;SDS011;54465;51.230;22.504;2023-10-13T14:51:23;9.40;;;4.65;;
32946;SDS011;54465;51.230;22.504;2023-10-13T14:56:26;8.68;;;3.75;;
32946;SDS011;54465;51.230;22.504;2023-10-13T15:01:27;5.60;;;3.88;;
32946;SDS011;54465;51.230;22.504;2023-10-13T15:06:27;6.05;;;4.25;;
32946;SDS011;54465;51.230;22.504;2023-10-13T15:11:31;7.38;;;4.15;;
32946;SDS011;54465;51.230;22.504;2023-10-13T15:16:37;8.83;;;4.93;;
32946;SDS011;54465;51.230;22.504;2023-10-13T15:21:38;8.07;;;5.15;;
32946;SDS011;54465;51.230;22.504;2023-10-13T15:26:40;8.13;;;5.05;;
32946;SDS011;54465;51.230;22.504;2023-10-13T15:31:45;9.27;;;5.53;;
32946;SDS011;54465;51.230;22.504;2023-10-13T15:37:01;10.15;;;5.68;;
32946;SDS011;54465;51.230;22.504;2023-10-13T15:42:05;9.15;;;5.88;;
32946;SDS011;54465;51.230;22.504;2023-10-13T15:47:06;10.68;;;6.00;;
32946;SDS011;54465;51.230;22.504;2023-10-13T15:52:06;10.02;;;5.85;;
32946;SDS011;54465;51.230;22.504;2023-10-13T15:57:08;10.10;;;6.65;;
32946;SDS011;54465;51.230;22.504;2023-10-13T16:02:16;13.07;;;7.80;;
32946;SDS011;54465;51.230;22.504;2023-10-13T16:07:19;13.57;;;6.88;;
32946;SDS011;54465;51.230;22.504;2023-10-13T16:12:22;10.02;;;6.55;;
32946;SDS011;54465;51.230;22.504;2023-10-13T16:17:22;15.00;;;6.68;;
32946;SDS011;54465;51.230;22.504;2023-10-13T16:22:23;10.73;;;6.43;;
32946;SDS011;54465;51.230;22.504;2023-10-13T16:27:23;10.57;;;6.15;;
32946;SDS011;54465;51.230;22.504;2023-10-13T16:32:24;21.90;;;7.10;;
32946;SDS011;54465;51.230;22.504;2023-10-13T16:37:26;11.23;;;6.45;;
32946;SDS011;54465;51.230;22.504;2023-10-13T16:42:27;11.57;;;7.32;;
32946;SDS011;54465;51.230;22.504;2023-10-13T16:47:27;10.60;;;7.18;;
32946;SDS011;54465;51.230;22.504;2023-10-13T16:52:28;8.65;;;5.38;;
32946;SDS011;54465;51.230;22.504;2023-10-13T16:57:29;10.98;;;6.00;;
32946;SDS011;54465;51.230;22.504;2023-10-13T17:02:30;12.23;;;6.03;;
32946;SDS011;54465;51.230;22.504;2023-10-13T17:07:30;10.15;;;6.07;;
32946;SDS011;54465;51.230;22.504;2023-10-13T17:12:31;7.38;;;5.57;;
32946;SDS011;54465;51.230;22.504;2023-10-13T17:17:33;9.00;;;5.95;;
32946;SDS011;54465;51.230;22.504;2023-10-13T17:22:33;10.88;;;7.13;;
32946;SDS011;54465;51.230;22.504;2023-10-13T17:27:37;12.63;;;7.65;;
32946;SDS011;54465;51.230;22.504;2023-10-13T17:32:38;7.93;;;6.60;;
32946;SDS011;54465;51.230;22.504;2023-10-13T17:37:39;12.55;;;7.70;;
32946;SDS011;54465;51.230;22.504;2023-10-13T17:42:43;11.80;;;6.80;;
32946;SDS011;54465;51.230;22.504;2023-10-13T17:47:50;10.63;;;6.53;;
32946;SDS011;54465;51.230;22.504;2023-10-13T17:52:51;12.60;;;6.40;;
32946;SDS011;54465;51.230;22.504;2023-10-13T17:57:51;9.30;;;6.40;;
32946;SDS011;54465;51.230;22.504;2023-10-13T18:02:52;7.50;;;5.70;;
32946;SDS011;54465;51.230;22.504;2023-10-13T18:07:54;10.88;;;6.22;;
32946;SDS011;54465;51.230;22.504;2023-10-13T18:12:54;9.38;;;6.45;;
32946;SDS011;54465;51.230;22.504;2023-10-13T18:17:55;9.60;;;6.38;;
32946;SDS011;54465;51.230;22.504;2023-10-13T18:22:56;10.57;;;6.40;;
32946;SDS011;54465;51.230;22.504;2023-10-13T18:27:59;9.70;;;6.05;;
32946;SDS011;54465;51.230;22.504;2023-10-13T18:33:03;9.30;;;6.25;;
32946;SDS011;54465;51.230;22.504;2023-10-13T18:38:05;7.38;;;5.68;;
32946;SDS011;54465;51.230;22.504;2023-10-13T18:43:08;9.73;;;5.93;;
32946;SDS011;54465;51.230;22.504;2023-10-13T18:48:09;10.35;;;6.07;;
32946;SDS011;54465;51.230;22.504;2023-10-13T18:53:12;10.05;;;6.57;;
32946;SDS011;54465;51.230;22.504;2023-10-13T18:58:13;7.75;;;5.93;;
32946;SDS011;54465;51.230;22.504;2023-10-13T19:03:13;13.55;;;6.50;;
32946;SDS011;54465;51.230;22.504;2023-10-13T19:08:14;7.40;;;6.20;;
32946;SDS011;54465;51.230;22.504;2023-10-13T19:13:18;8.38;;;6.65;;
32946;SDS011;54465;51.230;22.504;2023-10-13T19:18:18;12.73;;;6.32;;
32946;SDS011;54465;51.230;22.504;2023-10-13T19:23:18;7.47;;;5.78;;
32946;SDS011;54465;51.230;22.504;2023-10-13T19:28:20;10.30;;;5.95;;
32946;SDS011;54465;51.230;22.504;2023-10-13T19:33:22;10.70;;;6.57;;
32946;SDS011;54465;51.230;22.504;2023-10-13T19:38:23;9.63;;;6.72;;
32946;SDS011;54465;51.230;22.504;2023-10-13T19:43:23;10.68;;;7.07;;
32946;SDS011;54465;51.230;22.504;2023-10-13T19:48:26;9.48;;;6.50;;
32946;SDS011;54465;51.230;22.504;2023-10-13T19:53:27;11.52;;;6.80;;
32946;SDS011;54465;51.230;22.504;2023-10-13T19:58:28;10.52;;;7.13;;
32946;SDS011;54465;51.230;22.504;2023-10-13T20:03:28;9.95;;;6.50;;
32946;SDS011;54465;51.230;22.504;2023-10-13T20:08:29;8.80;;;6.85;;
32946;SDS011;54465;51.230;22.504;2023-10-13T20:13:29;11.30;;;6.25;;
32946;SDS011;54465;51.230;22.504;2023-10-13T20:18:36;13.48;;;6.78;;
32946;SDS011;54465;51.230;22.504;2023-10-13T20:23:37;11.60;;;6.72;;
32946;SDS011;54465;51.230;22.504;2023-10-13T20:28:40;9.55;;;7.10;;
32946;SDS011;54465;51.230;22.504;2023-10-13T20:33:41;11.05;;;6.47;;
32946;SDS011;54465;51.230;22.504;2023-10-13T20:38:44;11.35;;;6.57;;
32946;SDS011;54465;51.230;22.504;2023-10-13T20:43:51;8.07;;;6.32;;
32946;SDS011;54465;51.230;22.504;2023-10-13T20:48:52;12.65;;;7.20;;
32946;SDS011;54465;51.230;22.504;2023-10-13T20:53:54;10.45;;;7.13;;
32946;SDS011;54465;51.230;22.504;2023-10-13T20:58:54;8.95;;;6.40;;
32946;SDS011;54465;51.230;22.504;2023-10-13T21:04:00;9.90;;;6.65;;
32946;SDS011;54465;51.230;22.504;2023-10-13T21:09:00;11.20;;;6.78;;
32946;SDS011;54465;51.230;22.504;2023-10-13T21:14:01;11.00;;;7.55;;
32946;SDS011;54465;51.230;22.504;2023-10-13T21:19:01;11.35;;;7.80;;
32946;SDS011;54465;51.230;22.504;2023-10-13T21:24:05;10.63;;;7.60;;
32946;SDS011;54465;51.230;22.504;2023-10-13T21:29:09;10.45;;;7.30;;
32946;SDS011;54465;51.230;22.504;2023-10-13T21:34:10;10.02;;;7.32;;
32946;SDS011;54465;51.230;22.504;2023-10-13T21:39:10;8.30;;;6.25;;
32946;SDS011;54465;51.230;22.504;2023-10-13T21:44:11;9.98;;;7.28;;
32946;SDS011;54465;51.230;22.504;2023-10-13T21:49:12;9.65;;;6.18;;
32946;SDS011;54465;51.230;22.504;2023-10-13T21:54:12;12.30;;;6.82;;
32946;SDS011;54465;51.230;22.504;2023-10-13T21:59:14;9.65;;;7.03;;
32946;SDS011;54465;51.230;22.504;2023-10-13T22:04:15;10.07;;;7.35;;
32946;SDS011;54465;51.230;22.504;2023-10-13T22:09:21;9.87;;;7.20;;
32946;SDS011;54465;51.230;22.504;2023-10-13T22:14:22;8.15;;;5.88;;
32946;SDS011;54465;51.230;22.504;2023-10-13T22:19:22;11.60;;;6.93;;
32946;SDS011;54465;51.230;22.504;2023-10-13T22:24:23;13.15;;;6.63;;
32946;SDS011;54465;51.230;22.504;2023-10-13T22:29:23;8.57;;;5.80;;
32946;SDS011;54465;51.230;22.504;2023-10-13T22:34:24;11.57;;;7.15;;
32946;SDS011;54465;51.230;22.504;2023-10-13T22:39:25;10.27;;;5.90;;
32946;SDS011;54465;51.230;22.504;2023-10-13T22:44:26;8.50;;;5.85;;
32946;SDS011;54465;51.230;22.504;2023-10-13T22:49:26;12.15;;;7.30;;
32946;SDS011;54465;51.230;22.504;2023-10-13T22:54:27;11.68;;;6.10;;
32946;SDS011;54465;51.230;22.504;2023-10-13T22:59:29;9.70;;;6.20;;
32946;SDS011;54465;51.230;22.504;2023-10-13T23:04:29;10.10;;;6.07;;
32946;SDS011;54465;51.230;22.504;2023-10-13T23:09:33;10.98;;;5.80;;
32946;SDS011;54465;51.230;22.504;2023-10-13T23:14:35;10.45;;;5.88;;
32946;SDS011;54465;51.230;22.504;2023-10-13T23:19:36;9.32;;;6.15;;
32946;SDS011;54465;51.230;22.504;2023-10-13T23:24:36;10.38;;;5.70;;
32946;SDS011;54465;51.230;22.504;2023-10-13T23:29:37;8.82;;;5.30;;
32946;SDS011;54465;51.230;22.504;2023-10-13T23:34:37;9.60;;;5.72;;
32946;SDS011;54465;51.230;22.504;2023-10-13T23:39:38;12.13;;;5.65;;
32946;SDS011;54465;51.230;22.504;2023-10-13T23:44:38;7.82;;;5.47;;
32946;SDS011;54465;51.230;22.504;2023-10-13T23:49:39;6.88;;;5.30;;
32946;SDS011;54465;51.230;22.504;2023-10-13T23:54:39;8.85;;;5.63;;
32946;SDS011;54465;51.230;22.504;2023-10-13T23:59:40;8.73;;;5.50;;
